createdAt,value
2017-11-28T00:00:25.737Z,0.80
2017-11-28T00:02:54.107Z,0.90
2017-11-28T00:05:22.511Z,0.70
2017-11-28T00:07:50.969Z,0.70
2017-11-28T00:10:19.295Z,0.70
2017-11-28T00:12:47.715Z,0.90
2017-11-28T00:15:16.060Z,0.70
2017-11-28T00:17:44.401Z,0.80
2017-11-28T00:20:12.783Z,0.77
2017-11-28T00:22:41.147Z,0.60
2017-11-28T00:25:09.544Z,0.63
2017-11-28T00:27:37.949Z,0.60
2017-11-28T00:30:06.291Z,0.70
2017-11-28T00:32:34.772Z,0.50
2017-11-28T00:35:03.637Z,0.60
2017-11-28T00:37:32.047Z,0.60
2017-11-28T00:40:00.392Z,0.70
2017-11-28T00:42:28.811Z,0.60
2017-11-28T00:44:57.291Z,0.67
2017-11-28T00:47:25.753Z,0.87
2017-11-28T00:49:54.092Z,0.50
2017-11-28T00:52:22.437Z,0.70
2017-11-28T00:54:50.774Z,0.63
2017-11-28T00:57:19.192Z,0.83
2017-11-28T00:59:47.611Z,0.60
2017-11-28T01:02:15.960Z,0.70
2017-11-28T01:04:44.367Z,0.67
2017-11-28T01:07:12.734Z,1.00
2017-11-28T01:09:41.198Z,0.87
2017-11-28T01:12:09.527Z,0.70
2017-11-28T01:14:38.009Z,1.00
2017-11-28T01:17:06.441Z,0.90
2017-11-28T01:19:34.823Z,0.70
2017-11-28T01:22:03.640Z,0.60
2017-11-28T01:24:32.011Z,0.67
2017-11-28T01:27:00.486Z,0.90
2017-11-28T01:29:28.883Z,0.67
2017-11-28T01:31:57.269Z,0.90
2017-11-28T01:34:25.686Z,0.80
2017-11-28T01:36:54.057Z,0.70
2017-11-28T01:39:22.480Z,0.80
2017-11-28T01:41:50.791Z,1.23
2017-11-28T01:44:19.149Z,1.20
2017-11-28T01:46:47.691Z,0.50
2017-11-28T01:49:16.071Z,0.60
2017-11-28T01:51:44.427Z,0.80
2017-11-28T01:54:12.879Z,0.60
2017-11-28T01:56:41.374Z,0.80
2017-11-28T01:59:09.750Z,0.80
2017-11-28T02:01:38.119Z,0.60
2017-11-28T02:04:06.448Z,0.60
2017-11-28T02:06:34.989Z,0.97
2017-11-28T02:09:03.310Z,0.67
2017-11-28T02:11:31.797Z,0.90
2017-11-28T02:14:00.163Z,0.60
2017-11-28T02:16:28.550Z,0.70
2017-11-28T02:18:57.052Z,0.60
2017-11-28T02:21:25.419Z,0.60
2017-11-28T02:23:53.790Z,0.60
2017-11-28T02:26:22.171Z,0.90
2017-11-28T02:28:50.581Z,0.80
2017-11-28T02:31:18.939Z,0.90
2017-11-28T02:33:47.385Z,1.30
2017-11-28T02:36:15.707Z,1.00
2017-11-28T02:38:44.085Z,0.70
2017-11-28T02:41:13.275Z,1.23
2017-11-28T02:43:41.705Z,1.23
2017-11-28T02:46:13.754Z,1.30
2017-11-28T02:48:42.866Z,1.13
2017-11-28T02:51:13.255Z,1.10
2017-11-28T02:53:41.590Z,1.00
2017-11-28T02:56:10.012Z,1.27
2017-11-28T02:58:40.780Z,1.17
2017-11-28T03:01:23.843Z,1.47
2017-11-28T03:03:52.173Z,1.13
2017-11-28T03:06:20.853Z,1.10
2017-11-28T03:08:49.359Z,1.30
2017-11-28T03:11:17.743Z,1.60
2017-11-28T03:13:50.125Z,1.40
2017-11-28T03:16:19.316Z,1.40
2017-11-28T03:18:49.570Z,1.57
2017-11-28T03:21:23.442Z,1.13
2017-11-28T03:26:57.795Z,1.57
2017-11-28T03:29:32.919Z,1.60
2017-11-28T03:32:01.313Z,1.10
2017-11-28T03:34:29.682Z,1.80
2017-11-28T03:36:58.160Z,1.27
2017-11-28T03:39:26.511Z,1.33
2017-11-28T03:41:54.838Z,1.27
2017-11-28T03:47:23.671Z,1.50
2017-11-28T03:49:52.095Z,1.40
2017-11-28T03:52:20.420Z,1.20
2017-11-28T03:54:48.766Z,1.40
2017-11-28T03:57:17.330Z,1.40
2017-11-28T03:59:45.788Z,1.30
2017-11-28T04:02:14.141Z,1.43
2017-11-28T04:04:42.514Z,1.27
2017-11-28T04:07:10.967Z,1.70
2017-11-28T04:09:39.284Z,1.70
2017-11-28T04:12:07.626Z,1.30
2017-11-28T04:14:36.080Z,1.27
2017-11-28T04:17:04.518Z,1.37
2017-11-28T04:19:32.960Z,1.60
2017-11-28T04:22:01.343Z,1.47
2017-11-28T04:24:29.843Z,1.27
2017-11-28T04:26:58.217Z,1.30
2017-11-28T04:29:26.647Z,1.23
2017-11-28T04:31:55.121Z,1.53
2017-11-28T04:34:26.354Z,1.70
2017-11-28T04:36:54.737Z,1.33
2017-11-28T04:39:23.076Z,1.73
2017-11-28T04:41:51.429Z,1.53
2017-11-28T04:44:19.871Z,1.70
2017-11-28T04:46:48.295Z,1.70
2017-11-28T04:49:16.769Z,1.37
2017-11-28T04:51:45.118Z,1.00
2017-11-28T04:54:14.384Z,1.40
2017-11-28T04:56:44.570Z,1.40
2017-11-28T04:59:12.946Z,1.23
2017-11-28T05:01:41.308Z,1.87
2017-11-28T05:04:09.745Z,1.40
2017-11-28T05:06:38.122Z,1.40
2017-11-28T05:09:06.579Z,1.43
2017-11-28T05:11:34.982Z,1.20
2017-11-28T05:14:03.712Z,1.27
2017-11-28T05:16:32.153Z,1.20
2017-11-28T05:19:00.546Z,1.27
2017-11-28T05:21:28.910Z,1.10
2017-11-28T05:23:57.230Z,1.33
2017-11-28T05:26:25.563Z,1.40
2017-11-28T05:28:53.950Z,1.17
2017-11-28T05:31:22.327Z,1.20
2017-11-28T05:33:50.710Z,1.20
2017-11-28T05:36:19.028Z,0.90
2017-11-28T05:38:47.409Z,1.40
2017-11-28T05:41:15.880Z,1.33
2017-11-28T05:43:44.245Z,1.37
2017-11-28T05:46:12.609Z,2.10
2017-11-28T05:48:41.015Z,1.30
2017-11-28T05:51:09.382Z,1.40
2017-11-28T05:53:38.645Z,1.50
2017-11-28T05:58:39.945Z,1.27
2017-11-28T06:01:11.224Z,1.20
2017-11-28T06:03:39.644Z,1.40
2017-11-28T06:06:08.143Z,1.17
2017-11-28T06:08:37.365Z,0.83
2017-11-28T06:11:06.751Z,1.00
2017-11-28T06:13:35.259Z,0.80
2017-11-28T06:16:03.728Z,0.90
2017-11-28T06:18:32.221Z,1.30
2017-11-28T06:21:00.770Z,1.40
2017-11-28T06:23:29.307Z,1.10
2017-11-28T06:25:57.850Z,1.03
2017-11-28T06:28:26.268Z,1.20
2017-11-28T06:33:35.146Z,1.63
2017-11-28T06:36:03.729Z,1.37
2017-11-28T06:38:32.198Z,1.30
2017-11-28T06:41:00.639Z,1.50
2017-11-28T06:43:32.372Z,2.10
2017-11-28T06:46:00.872Z,1.80
2017-11-28T06:48:29.282Z,1.70
2017-11-28T06:50:57.827Z,1.40
2017-11-28T06:53:26.405Z,1.47
2017-11-28T07:01:01.099Z,1.40
2017-11-28T07:03:29.687Z,1.87
2017-11-28T07:08:30.502Z,1.40
2017-11-28T07:16:42.186Z,1.60
2017-11-28T07:19:11.011Z,1.63
2017-11-28T07:31:53.816Z,1.63
2017-11-28T07:34:22.364Z,1.57
2017-11-28T07:40:01.980Z,2.00
2017-11-28T07:42:30.979Z,1.70
2017-11-28T07:44:59.871Z,2.20
2017-11-28T07:47:28.487Z,2.03
2017-11-28T07:58:39.652Z,1.43
2017-11-28T08:01:08.190Z,1.47
2017-11-28T08:06:36.188Z,2.07
2017-11-28T08:11:38.196Z,1.40
2017-11-28T08:14:06.640Z,2.07
2017-11-28T08:16:35.248Z,1.70
2017-11-28T08:22:13.769Z,1.53
2017-11-28T08:27:52.046Z,1.70
2017-11-28T08:30:20.399Z,2.07
2017-11-28T08:39:27.500Z,2.43
2017-11-28T08:47:58.363Z,2.03
2017-11-28T08:58:30.974Z,2.20
2017-11-28T09:06:25.155Z,2.30
2017-11-28T09:21:43.666Z,2.57
2017-11-28T09:26:44.614Z,1.67
2017-11-28T09:29:13.077Z,1.60
2017-11-28T09:37:51.699Z,2.63
2017-11-28T09:42:55.232Z,2.07
2017-11-28T09:50:36.020Z,1.10
2017-11-28T09:58:10.199Z,1.43
2017-11-28T10:00:41.164Z,1.50
2017-11-28T10:05:53.329Z,1.60
2017-11-28T10:10:55.087Z,1.17
2017-11-28T10:34:56.149Z,1.60
2017-11-28T10:37:24.651Z,1.40
2017-11-28T10:39:53.487Z,1.77
2017-11-28T10:42:22.600Z,1.10
2017-11-28T10:58:55.532Z,0.93
2017-11-28T11:09:05.152Z,1.77
2017-11-28T11:14:09.916Z,2.73
2017-11-28T11:16:39.876Z,2.00
2017-11-28T11:19:12.629Z,1.90
2017-11-28T11:21:42.057Z,1.27
2017-11-28T11:29:27.645Z,1.70
2017-11-28T11:31:56.462Z,1.33
2017-11-28T11:44:49.365Z,1.27
2017-11-28T11:58:57.675Z,1.40
2017-11-28T12:16:41.128Z,1.20
2017-11-28T14:05:17.499Z,2.67
2017-11-28T14:47:20.805Z,2.40
2017-11-28T15:28:04.004Z,3.40
2017-11-28T15:35:38.879Z,1.80
2017-11-28T15:43:42.792Z,2.00
2017-11-28T15:46:14.003Z,2.20
2017-11-28T16:40:25.826Z,2.30
2017-11-28T18:44:15.336Z,2.53
2017-11-28T18:46:43.833Z,3.17
2017-11-28T19:12:20.853Z,2.20
2017-11-28T19:17:59.499Z,3.00
2017-11-28T19:31:45.102Z,2.87
2017-11-28T19:42:09.759Z,3.33
2017-11-28T19:47:48.918Z,3.50
2017-11-28T19:50:17.779Z,3.03
2017-11-28T19:55:20.172Z,4.33
2017-11-28T20:01:01.681Z,2.90
2017-11-28T20:08:48.706Z,3.50
2017-11-28T20:11:17.361Z,4.40
2017-11-28T20:21:31.441Z,5.37
2017-11-28T20:24:19.855Z,3.33
2017-11-28T20:26:49.152Z,3.80
2017-11-28T20:37:34.618Z,5.00
2017-11-28T20:43:30.131Z,4.10
2017-11-28T20:45:58.612Z,4.23
2017-11-28T20:48:27.030Z,3.90
2017-11-28T20:59:27.104Z,4.30
2017-11-28T21:01:56.427Z,3.10
2017-11-28T21:04:38.681Z,4.20
2017-11-28T21:09:40.127Z,3.70
2017-11-28T21:14:46.520Z,4.97
2017-11-28T21:17:14.995Z,3.87
2017-11-28T21:19:43.953Z,3.77
2017-11-28T21:24:47.420Z,4.77
2017-11-28T21:27:18.289Z,4.10
2017-11-28T21:29:47.423Z,3.93
2017-11-28T21:32:15.853Z,4.20
2017-11-28T21:34:45.433Z,4.13
2017-11-28T21:37:15.114Z,4.40
2017-11-28T21:39:47.290Z,4.53
2017-11-28T21:42:15.781Z,3.80
2017-11-28T21:44:44.380Z,4.73
2017-11-28T21:47:12.833Z,5.07
2017-11-28T21:49:42.287Z,5.50
2017-11-28T21:52:19.510Z,4.43
2017-11-28T21:54:51.087Z,5.20
2017-11-28T21:57:19.608Z,4.90
2017-11-28T21:59:48.761Z,4.03
2017-11-28T22:02:17.235Z,4.43
2017-11-28T22:07:18.071Z,3.30
2017-11-28T22:14:55.360Z,4.03
2017-11-28T22:20:01.701Z,3.90
2017-11-28T22:22:30.166Z,3.03
2017-11-28T22:25:02.315Z,4.33
2017-11-28T22:27:30.861Z,3.43
2017-11-28T22:29:59.527Z,3.77
2017-11-28T22:32:27.879Z,3.80
2017-11-28T22:34:59.578Z,4.47
2017-11-28T22:40:01.529Z,3.73
2017-11-28T22:42:30.038Z,3.43
2017-11-28T22:44:58.428Z,4.03
2017-11-28T22:47:26.960Z,3.67
2017-11-28T22:49:55.372Z,3.93
2017-11-28T22:52:23.851Z,3.60
2017-11-28T22:54:52.447Z,4.00
2017-11-28T22:57:20.876Z,4.00
2017-11-28T22:59:49.430Z,3.80
2017-11-28T23:02:18.204Z,3.87
2017-11-28T23:04:46.643Z,3.50
2017-11-28T23:07:15.121Z,4.23
2017-11-28T23:09:43.588Z,3.80
2017-11-28T23:12:11.912Z,3.27
2017-11-28T23:14:49.653Z,4.07
2017-11-28T23:17:19.930Z,3.20
2017-11-28T23:19:49.167Z,3.90
2017-11-28T23:22:18.676Z,3.97
2017-11-28T23:24:47.913Z,3.10
2017-11-28T23:27:17.172Z,3.00
2017-11-28T23:29:45.616Z,3.50
2017-11-28T23:32:14.112Z,4.13
2017-11-28T23:34:42.506Z,3.43
2017-11-28T23:37:12.407Z,3.00
2017-11-28T23:39:40.891Z,3.63
2017-11-28T23:42:09.254Z,2.80
2017-11-28T23:44:37.610Z,3.70
2017-11-28T23:47:06.010Z,3.70
2017-11-28T23:49:34.356Z,3.40
2017-11-28T23:52:02.724Z,3.60
2017-11-28T23:54:34.961Z,3.40
2017-11-28T23:57:03.293Z,4.27
2017-11-28T23:59:31.836Z,4.50
